Time;durP1;ratioP1;P1;durP2;ratioP2;P2;SDS_P1;SDS_P2;PMS_P1;PMS_P2;Temp;Humidity;BMP_temperature;BMP_pressure;BME280_temperature;BME280_humidity;BME280_pressure;Samples;Min_cycle;Max_cycle;Signal;HPM_P1;HPM_P2
2023/05/11 00:00:48;;;;;;;2.40;0.93;;;10.00;99.90;;;;;;21000093;28;20111;-76
2023/05/11 00:10:49;;;;;;;1.07;0.80;;;9.90;99.90;;;;;;21000638;28;20025;-76
2023/05/11 00:20:50;;;;;;;4.33;0.93;;;9.80;99.90;;;;;;21001176;28;20142;-77
2023/05/11 00:30:57;;;;;;;1.10;0.70;;;9.80;99.90;;;;;;20994211;28;20042;-76
2023/05/11 00:40:58;;;;;;;0.73;0.50;;;9.60;99.90;;;;;;20989286;28;20434;-76
2023/05/11 00:50:59;;;;;;;3.50;0.87;;;9.60;99.90;;;;;;20997235;28;20178;-75
2023/05/11 01:01:00;;;;;;;3.97;1.00;;;9.50;99.90;;;;;;20995528;28;20115;-76
2023/05/11 01:11:16;;;;;;;1.43;0.70;;;9.40;99.90;;;;;;20993889;28;20068;-76
2023/05/11 01:21:17;;;;;;;5.22;0.80;;;9.40;99.90;;;;;;20976532;28;20033;-76
2023/05/11 01:31:20;;;;;;;1.30;0.70;;;9.40;99.90;;;;;;20989021;28;20549;-76
2023/05/11 01:41:23;;;;;;;1.73;0.65;;;9.40;99.90;;;;;;21004976;28;20024;-76
2023/05/11 01:51:28;;;;;;;3.97;0.73;;;9.50;99.90;;;;;;20985980;28;20032;-77
2023/05/11 02:01:30;;;;;;;3.17;0.90;;;9.50;99.90;;;;;;20982844;28;20052;-76
2023/05/11 02:11:33;;;;;;;1.23;0.63;;;9.50;99.90;;;;;;21001768;28;20111;-80
2023/05/11 02:21:35;;;;;;;3.65;0.80;;;9.60;99.90;;;;;;20978695;28;20032;-77
2023/05/11 02:31:43;;;;;;;1.98;0.90;;;9.70;99.90;;;;;;20995027;28;20044;-79
2023/05/11 02:41:54;;;;;;;1.17;0.67;;;9.80;99.90;;;;;;20973039;28;20028;-76
2023/05/11 02:51:58;;;;;;;1.83;0.98;;;9.90;99.90;;;;;;20991206;28;20032;-77
2023/05/11 03:01:59;;;;;;;3.35;0.95;;;9.90;99.90;;;;;;20898513;28;20506;-76
2023/05/11 03:12:03;;;;;;;;;;;9.90;99.90;;;;;;20968413;28;20036;-76
2023/05/11 03:22:07;;;;;;;1.70;0.85;;;10.00;99.90;;;;;;20987406;28;19916;-76
2023/05/11 03:32:08;;;;;;;2.85;1.25;;;10.00;99.90;;;;;;20985592;28;20491;-76
2023/05/11 03:42:13;;;;;;;4.00;1.30;;;10.10;99.90;;;;;;21006775;28;20029;-77
2023/05/11 03:52:16;;;;;;;3.65;1.30;;;10.10;99.90;;;;;;21016064;28;20236;-77
2023/05/11 04:02:17;;;;;;;2.13;1.23;;;10.00;99.90;;;;;;21004160;28;20092;-77
2023/05/11 04:12:18;;;;;;;2.50;1.40;;;10.00;99.90;;;;;;20994637;28;20039;-78
2023/05/11 04:22:19;;;;;;;3.90;1.23;;;10.00;99.90;;;;;;20978183;28;20032;-77
2023/05/11 04:32:20;;;;;;;5.00;1.87;;;10.00;99.90;;;;;;21009056;28;20095;-77
2023/05/11 04:42:21;;;;;;;3.90;1.70;;;10.00;99.90;;;;;;20994874;28;20024;-77
2023/05/11 04:52:25;;;;;;;11.13;1.40;;;10.10;99.90;;;;;;21014108;28;20024;-77
2023/05/11 05:02:26;;;;;;;6.78;1.63;;;10.10;99.90;;;;;;21011974;28;20025;-78
2023/05/11 05:12:27;;;;;;;3.30;1.30;;;10.20;99.90;;;;;;20989034;28;20024;-77
2023/05/11 05:22:28;;;;;;;3.57;1.17;;;10.30;99.90;;;;;;21021588;28;20021;-77
2023/05/11 05:32:30;;;;;;;6.15;1.20;;;10.50;99.90;;;;;;20987096;28;20059;-78
2023/05/11 05:42:31;;;;;;;3.57;1.30;;;10.70;99.90;;;;;;20990154;28;20032;-77
2023/05/11 05:52:32;;;;;;;6.47;1.67;;;10.60;99.90;;;;;;20991999;28;20490;-78
2023/05/11 06:02:33;;;;;;;1.42;1.13;;;10.70;99.90;;;;;;20974886;28;20812;-76
2023/05/11 06:12:34;;;;;;;1.95;1.17;;;10.90;99.90;;;;;;20977279;28;20406;-77
2023/05/11 06:22:36;;;;;;;3.42;1.35;;;10.90;99.90;;;;;;20978261;28;20181;-77
2023/05/11 06:32:38;;;;;;;6.25;1.83;;;11.10;99.90;;;;;;20954165;28;20082;-76
2023/05/11 06:42:41;;;;;;;3.97;1.17;;;11.30;99.90;;;;;;21003206;28;20068;-77
2023/05/11 06:52:44;;;;;;;4.78;1.75;;;11.50;99.90;;;;;;20967989;28;20024;-77
2023/05/11 07:02:45;;;;;;;4.40;1.10;;;11.70;99.90;;;;;;20986934;28;20043;-77
2023/05/11 07:12:45;;;;;;;4.33;1.23;;;11.90;99.90;;;;;;21018648;28;20328;-78
2023/05/11 07:22:46;;;;;;;2.27;1.10;;;11.60;99.90;;;;;;21025081;28;20065;-77
2023/05/11 07:32:47;;;;;;;2.63;1.43;;;12.00;99.90;;;;;;20987485;28;20517;-76
2023/05/11 07:42:48;;;;;;;4.90;0.98;;;12.10;99.90;;;;;;20983769;28;20107;-76
2023/05/11 07:52:49;;;;;;;3.70;1.10;;;12.60;99.90;;;;;;20997204;28;20059;-76
2023/05/11 08:02:50;;;;;;;3.07;0.90;;;13.10;99.90;;;;;;20999692;28;20024;-76
2023/05/11 08:12:50;;;;;;;1.60;0.73;;;13.10;99.90;;;;;;20999264;28;20419;-76
2023/05/11 08:22:51;;;;;;;3.27;0.80;;;13.50;99.90;;;;;;20996543;28;20450;-76
2023/05/11 08:32:52;;;;;;;2.10;0.80;;;14.10;99.90;;;;;;20986807;28;20036;-76
2023/05/11 08:42:55;;;;;;;2.87;1.20;;;14.60;99.90;;;;;;20997052;28;20052;-76
2023/05/11 08:52:56;;;;;;;2.03;0.90;;;14.90;99.90;;;;;;21001106;28;20037;-76
2023/05/11 09:02:57;;;;;;;2.93;0.73;;;15.00;99.90;;;;;;20997371;28;20612;-76
2023/05/11 09:12:58;;;;;;;4.57;0.90;;;14.40;99.90;;;;;;21029783;28;20036;-76
2023/05/11 09:22:59;;;;;;;1.17;0.63;;;14.30;99.90;;;;;;21058308;28;20393;-77
2023/05/11 09:33:01;;;;;;;6.30;1.27;;;14.40;99.90;;;;;;21040049;28;20122;-77
2023/05/11 09:43:14;;;;;;;0.98;0.70;;;14.40;99.90;;;;;;21047266;28;20092;-77
2023/05/11 09:53:16;;;;;;;2.70;0.77;;;14.10;99.90;;;;;;21026390;28;20028;-76
2023/05/11 10:03:17;;;;;;;;;;;14.10;99.90;;;;;;21008049;28;20478;-76
2023/05/11 10:13:18;;;;;;;3.63;0.90;;;14.40;99.90;;;;;;21020551;28;20021;-76
2023/05/11 10:23:19;;;;;;;2.13;1.40;;;14.30;99.90;;;;;;21022376;28;20032;-76
2023/05/11 10:33:20;;;;;;;5.95;1.40;;;15.10;99.90;;;;;;20985523;28;20055;-76
2023/05/11 10:43:41;;;;;;;1.42;0.90;;;14.50;99.90;;;;;;20984030;28;20032;-76
2023/05/11 10:54:11;;;;;;;3.20;1.05;;;14.40;99.90;;;;;;20984843;28;20047;-76
2023/05/11 11:04:13;;;;;;;1.42;0.70;;;14.10;99.90;;;;;;21000836;28;20452;-77
2023/05/11 11:14:14;;;;;;;;;;;14.30;99.90;;;;;;20984459;28;20028;-76
2023/05/11 11:24:45;;;;;;;1.55;0.70;;;13.30;99.90;;;;;;20991934;28;19919;-76
2023/05/11 11:34:47;;;;;;;3.88;1.00;;;12.70;99.90;;;;;;20997226;28;20144;-76
2023/05/11 11:44:47;;;;;;;0.30;0.30;;;12.50;99.90;;;;;;21003674;28;20047;-77
2023/05/11 11:54:48;;;;;;;0.97;0.50;;;12.40;99.90;;;;;;20987340;28;20032;-77
2023/05/11 12:05:13;;;;;;;1.63;0.50;;;12.30;99.90;;;;;;21001813;28;20035;-77
2023/05/11 12:15:23;;;;;;;1.05;0.32;;;12.50;99.90;;;;;;20982073;28;20051;-77
2023/05/11 12:25:24;;;;;;;0.85;0.50;;;12.60;99.90;;;;;;21012161;28;20089;-77
2023/05/11 12:35:28;;;;;;;4.47;0.67;;;12.90;99.90;;;;;;21004430;28;20028;-77
2023/05/11 12:45:29;;;;;;;0.80;0.40;;;13.00;99.90;;;;;;20998850;28;20514;-77
2023/05/11 12:55:30;;;;;;;5.63;1.73;;;13.00;99.90;;;;;;20993118;28;20090;-77
2023/05/11 13:05:31;;;;;;;3.10;0.70;;;13.40;99.90;;;;;;20992496;28;20490;-77
2023/05/11 13:15:32;;;;;;;0.87;0.60;;;13.70;99.90;;;;;;20992004;28;20028;-77
2023/05/11 13:25:49;;;;;;;1.13;0.65;;;14.10;99.90;;;;;;21051243;28;20032;-77
2023/05/11 13:35:49;;;;;;;1.75;0.80;;;13.90;99.90;;;;;;21074133;28;20485;-77
2023/05/11 13:45:50;;;;;;;1.93;0.40;;;14.00;99.90;;;;;;21000171;28;20079;-77
2023/05/11 13:55:51;;;;;;;0.60;0.50;;;14.50;99.90;;;;;;20989891;28;20083;-77
2023/05/11 14:05:52;;;;;;;0.50;0.50;;;14.80;99.90;;;;;;20992780;28;20094;-77
2023/05/11 14:15:53;;;;;;;1.20;0.40;;;14.80;99.90;;;;;;20991662;28;20035;-77
2023/05/11 14:25:54;;;;;;;1.13;0.33;;;14.80;99.90;;;;;;20968149;28;20154;-77
2023/05/11 14:35:55;;;;;;;0.63;0.55;;;14.80;99.90;;;;;;20968289;28;20106;-77
2023/05/11 14:45:58;;;;;;;1.53;0.80;;;14.80;99.90;;;;;;20980680;28;20029;-75
2023/05/11 14:55:59;;;;;;;1.02;0.40;;;14.70;99.90;;;;;;20981648;28;20063;-76
2023/05/11 15:06:00;;;;;;;0.47;0.40;;;13.80;99.90;;;;;;21001556;28;20044;-76
2023/05/11 15:16:01;;;;;;;2.00;0.35;;;13.30;99.90;;;;;;20994715;28;20035;-75
2023/05/11 15:26:02;;;;;;;0.63;0.30;;;12.80;99.90;;;;;;20976354;28;20507;-75
2023/05/11 15:36:22;;;;;;;1.50;0.40;;;12.00;99.90;;;;;;20997464;28;20059;-76
2023/05/11 15:46:23;;;;;;;0.73;0.30;;;11.80;99.90;;;;;;21033159;28;20042;-76
2023/05/11 15:56:25;;;;;;;2.73;1.63;;;11.90;99.90;;;;;;20997172;28;20568;-76
2023/05/11 16:06:26;;;;;;;1.95;0.98;;;12.30;99.90;;;;;;21018961;28;20525;-77
2023/05/11 16:16:27;;;;;;;2.30;0.93;;;12.10;99.90;;;;;;20981960;28;20028;-76
2023/05/11 16:26:29;;;;;;;3.63;1.77;;;11.90;99.90;;;;;;21000010;28;20790;-77
2023/05/11 16:36:30;;;;;;;0.85;0.57;;;11.90;99.90;;;;;;21036350;28;20531;-77
2023/05/11 16:46:31;;;;;;;1.27;0.70;;;11.90;99.90;;;;;;21043006;28;20024;-76
2023/05/11 16:56:32;;;;;;;1.60;0.93;;;11.70;99.90;;;;;;21032767;28;20032;-77
2023/05/11 17:06:33;;;;;;;1.00;0.80;;;12.00;99.90;;;;;;21033198;28;20512;-77
2023/05/11 17:16:33;;;;;;;2.20;1.17;;;11.80;99.90;;;;;;21007821;28;20042;-77
2023/05/11 17:26:34;;;;;;;3.37;0.90;;;11.60;99.90;;;;;;21029002;28;20032;-77
2023/05/11 17:36:35;;;;;;;1.80;1.07;;;11.40;99.90;;;;;;21036468;28;20563;-77
2023/05/11 17:46:36;;;;;;;1.47;0.90;;;11.50;99.90;;;;;;21045004;28;20558;-77
2023/05/11 17:56:37;;;;;;;1.53;1.07;;;11.20;99.90;;;;;;20950631;28;20029;-77
2023/05/11 18:06:37;;;;;;;1.73;1.30;;;11.20;99.90;;;;;;21020282;28;20060;-77
2023/05/11 18:16:38;;;;;;;2.77;1.40;;;11.20;99.90;;;;;;21006740;28;20092;-77
2023/05/11 18:26:40;;;;;;;6.83;1.40;;;11.20;99.90;;;;;;21029775;28;20475;-78
2023/05/11 18:36:40;;;;;;;3.33;1.60;;;10.90;99.90;;;;;;21010159;28;20040;-77
2023/05/11 18:46:42;;;;;;;2.43;1.80;;;10.80;99.90;;;;;;21004126;28;20078;-76
2023/05/11 18:56:43;;;;;;;4.50;2.00;;;10.80;99.90;;;;;;20982092;28;20110;-76
2023/05/11 19:06:43;;;;;;;5.93;2.20;;;10.90;99.90;;;;;;21011691;28;20310;-75
2023/05/11 19:16:45;;;;;;;4.00;2.37;;;10.90;99.90;;;;;;20962659;28;20029;-76
2023/05/11 19:26:46;;;;;;;3.35;2.13;;;10.90;99.90;;;;;;20979791;28;20111;-75
2023/05/11 19:36:46;;;;;;;7.20;2.40;;;10.80;99.90;;;;;;21054566;28;20066;-76
2023/05/11 19:46:47;;;;;;;5.73;2.47;;;10.80;99.90;;;;;;21046413;28;20466;-76
2023/05/11 19:56:48;;;;;;;2.87;2.07;;;10.60;99.90;;;;;;21050260;28;20831;-77
2023/05/11 20:06:49;;;;;;;4.97;2.37;;;10.70;99.90;;;;;;21002072;28;20104;-77
2023/05/11 20:16:50;;;;;;;3.20;2.13;;;10.70;99.90;;;;;;20993939;28;20407;-77
2023/05/11 20:26:51;;;;;;;5.43;2.93;;;10.80;99.90;;;;;;21031385;28;20429;-77
2023/05/11 20:36:52;;;;;;;6.20;3.25;;;10.70;99.90;;;;;;21012480;28;20052;-77
2023/05/11 20:46:53;;;;;;;3.63;2.50;;;10.60;99.90;;;;;;21036394;28;20475;-77
2023/05/11 20:56:54;;;;;;;5.57;2.37;;;10.60;99.90;;;;;;21008425;28;20040;-77
2023/05/11 21:06:55;;;;;;;3.80;2.47;;;10.60;99.90;;;;;;21004697;28;20025;-77
2023/05/11 21:16:56;;;;;;;3.27;2.47;;;10.60;99.90;;;;;;21003209;28;20505;-77
2023/05/11 21:26:56;;;;;;;4.80;2.70;;;10.50;99.90;;;;;;21034479;28;20028;-77
2023/05/11 21:36:58;;;;;;;7.30;2.90;;;10.60;99.90;;;;;;21009774;28;20411;-77
2023/05/11 21:46:59;;;;;;;4.82;3.40;;;10.60;99.90;;;;;;20986528;28;20037;-77
2023/05/11 21:57:00;;;;;;;7.60;3.97;;;10.60;99.90;;;;;;21017246;28;20540;-76
2023/05/11 22:07:01;;;;;;;5.53;3.63;;;10.60;99.90;;;;;;21059203;28;20024;-77
2023/05/11 22:17:01;;;;;;;6.67;3.60;;;10.60;99.90;;;;;;20962881;28;20128;-78
2023/05/11 22:27:02;;;;;;;6.50;1.97;;;10.50;99.90;;;;;;20991576;28;20033;-77
2023/05/11 22:37:04;;;;;;;7.17;1.50;;;10.40;99.90;;;;;;20989592;28;20116;-77
2023/05/11 22:47:05;;;;;;;5.07;1.90;;;10.40;99.90;;;;;;20968380;28;20552;-77
2023/05/11 22:57:06;;;;;;;3.78;2.40;;;10.40;99.90;;;;;;20976763;28;20526;-77
2023/05/11 23:07:10;;;;;;;5.20;2.50;;;10.30;99.90;;;;;;20985443;28;20253;-77
2023/05/11 23:17:11;;;;;;;6.50;2.10;;;10.30;99.90;;;;;;20992107;28;20028;-77
2023/05/11 23:27:12;;;;;;;4.30;2.37;;;10.10;99.90;;;;;;21005060;28;20029;-77
2023/05/11 23:37:13;;;;;;;4.23;2.03;;;10.10;99.90;;;;;;21004070;28;20056;-77
2023/05/11 23:47:14;;;;;;;4.47;2.20;;;10.10;99.90;;;;;;21003203;28;20021;-77
2023/05/11 23:57:15;;;;;;;5.13;2.73;;;10.10;99.90;;;;;;21002369;28;20275;-77
